sensor_id;sensor_type;location;lat;lon;timestamp;temperature;humidity
68217;DHT22;55037;52.354;4.992;2023-06-22T00:01:20;19.70;70.00
68217;DHT22;55037;52.354;4.992;2023-06-22T00:03:50;19.70;70.20
68217;DHT22;55037;52.354;4.992;2023-06-22T00:06:17;19.70;70.50
68217;DHT22;55037;52.354;4.992;2023-06-22T00:08:44;19.70;70.60
68217;DHT22;55037;52.354;4.992;2023-06-22T00:11:12;19.70;70.60
68217;DHT22;55037;52.354;4.992;2023-06-22T00:13:39;19.70;70.80
68217;DHT22;55037;52.354;4.992;2023-06-22T00:16:07;19.60;70.80
68217;DHT22;55037;52.354;4.992;2023-06-22T00:18:34;19.70;71.10
68217;DHT22;55037;52.354;4.992;2023-06-22T00:21:01;19.60;70.90
68217;DHT22;55037;52.354;4.992;2023-06-22T00:23:28;19.60;71.10
68217;DHT22;55037;52.354;4.992;2023-06-22T00:26:01;19.60;72.10
68217;DHT22;55037;52.354;4.992;2023-06-22T00:28:28;19.60;71.10
68217;DHT22;55037;52.354;4.992;2023-06-22T00:30:56;19.60;71.10
68217;DHT22;55037;52.354;4.992;2023-06-22T00:33:25;19.60;71.40
68217;DHT22;55037;52.354;4.992;2023-06-22T00:35:52;19.50;71.40
68217;DHT22;55037;52.354;4.992;2023-06-22T00:38:20;19.50;71.70
68217;DHT22;55037;52.354;4.992;2023-06-22T00:40:47;19.50;71.20
68217;DHT22;55037;52.354;4.992;2023-06-22T00:43:15;19.40;72.10
68217;DHT22;55037;52.354;4.992;2023-06-22T00:45:42;19.50;72.30
68217;DHT22;55037;52.354;4.992;2023-06-22T00:48:10;19.50;72.50
68217;DHT22;55037;52.354;4.992;2023-06-22T00:50:40;19.40;72.60
68217;DHT22;55037;52.354;4.992;2023-06-22T00:53:09;19.40;72.70
68217;DHT22;55037;52.354;4.992;2023-06-22T00:55:42;19.40;73.00
68217;DHT22;55037;52.354;4.992;2023-06-22T00:58:19;19.40;73.00
68217;DHT22;55037;52.354;4.992;2023-06-22T01:00:49;19.40;72.40
68217;DHT22;55037;52.354;4.992;2023-06-22T01:03:16;19.40;73.40
68217;DHT22;55037;52.354;4.992;2023-06-22T01:05:46;19.40;73.50
68217;DHT22;55037;52.354;4.992;2023-06-22T01:08:29;19.40;73.60
68217;DHT22;55037;52.354;4.992;2023-06-22T01:16:31;19.40;74.10
68217;DHT22;55037;52.354;4.992;2023-06-22T01:19:35;19.40;73.90
68217;DHT22;55037;52.354;4.992;2023-06-22T01:22:07;19.40;74.20
68217;DHT22;55037;52.354;4.992;2023-06-22T01:27:56;19.50;74.10
68217;DHT22;55037;52.354;4.992;2023-06-22T01:30:30;19.50;74.10
68217;DHT22;55037;52.354;4.992;2023-06-22T01:32:59;19.40;74.20
68217;DHT22;55037;52.354;4.992;2023-06-22T01:35:28;19.40;74.20
68217;DHT22;55037;52.354;4.992;2023-06-22T01:37:56;19.40;74.30
68217;DHT22;55037;52.354;4.992;2023-06-22T01:40:23;19.30;74.60
68217;DHT22;55037;52.354;4.992;2023-06-22T01:42:52;19.40;74.80
68217;DHT22;55037;52.354;4.992;2023-06-22T01:45:20;19.40;75.00
68217;DHT22;55037;52.354;4.992;2023-06-22T01:47:49;19.40;75.10
68217;DHT22;55037;52.354;4.992;2023-06-22T01:50:17;19.30;75.10
68217;DHT22;55037;52.354;4.992;2023-06-22T01:52:44;19.30;75.10
68217;DHT22;55037;52.354;4.992;2023-06-22T01:55:12;19.40;75.30
68217;DHT22;55037;52.354;4.992;2023-06-22T01:57:40;19.40;75.20
68217;DHT22;55037;52.354;4.992;2023-06-22T02:00:10;19.40;75.10
68217;DHT22;55037;52.354;4.992;2023-06-22T02:02:52;19.40;75.40
68217;DHT22;55037;52.354;4.992;2023-06-22T02:05:23;19.40;75.60
68217;DHT22;55037;52.354;4.992;2023-06-22T02:07:59;19.40;75.70
68217;DHT22;55037;52.354;4.992;2023-06-22T02:10:31;19.40;76.00
68217;DHT22;55037;52.354;4.992;2023-06-22T02:13:00;19.40;76.40
68217;DHT22;55037;52.354;4.992;2023-06-22T02:15:28;19.50;76.30
68217;DHT22;55037;52.354;4.992;2023-06-22T02:17:56;19.60;76.40
68217;DHT22;55037;52.354;4.992;2023-06-22T02:20:24;19.60;76.10
68217;DHT22;55037;52.354;4.992;2023-06-22T02:22:51;19.60;76.00
68217;DHT22;55037;52.354;4.992;2023-06-22T02:25:19;19.60;76.10
68217;DHT22;55037;52.354;4.992;2023-06-22T02:27:46;19.60;76.00
68217;DHT22;55037;52.354;4.992;2023-06-22T02:30:16;19.60;76.30
68217;DHT22;55037;52.354;4.992;2023-06-22T02:32:44;19.60;76.20
68217;DHT22;55037;52.354;4.992;2023-06-22T02:35:15;19.60;76.40
68217;DHT22;55037;52.354;4.992;2023-06-22T02:37:42;19.60;76.40
68217;DHT22;55037;52.354;4.992;2023-06-22T02:40:10;19.60;76.50
68217;DHT22;55037;52.354;4.992;2023-06-22T02:42:38;19.60;76.30
68217;DHT22;55037;52.354;4.992;2023-06-22T02:45:06;19.60;76.30
68217;DHT22;55037;52.354;4.992;2023-06-22T02:47:34;19.60;76.50
68217;DHT22;55037;52.354;4.992;2023-06-22T02:50:02;19.60;76.60
68217;DHT22;55037;52.354;4.992;2023-06-22T02:52:32;19.60;76.50
68217;DHT22;55037;52.354;4.992;2023-06-22T02:55:01;19.60;76.60
68217;DHT22;55037;52.354;4.992;2023-06-22T02:57:29;19.60;76.70
68217;DHT22;55037;52.354;4.992;2023-06-22T02:59:57;19.60;76.80
68217;DHT22;55037;52.354;4.992;2023-06-22T03:02:25;19.60;76.90
68217;DHT22;55037;52.354;4.992;2023-06-22T03:04:53;19.50;77.00
68217;DHT22;55037;52.354;4.992;2023-06-22T03:07:20;19.60;77.00
68217;DHT22;55037;52.354;4.992;2023-06-22T03:09:50;19.60;77.20
68217;DHT22;55037;52.354;4.992;2023-06-22T03:12:17;19.60;77.00
68217;DHT22;55037;52.354;4.992;2023-06-22T03:14:53;19.60;77.20
68217;DHT22;55037;52.354;4.992;2023-06-22T03:17:21;19.60;77.00
68217;DHT22;55037;52.354;4.992;2023-06-22T03:19:48;19.60;77.20
68217;DHT22;55037;52.354;4.992;2023-06-22T03:22:15;19.80;78.60
68217;DHT22;55037;52.354;4.992;2023-06-22T03:24:44;19.60;78.30
68217;DHT22;55037;52.354;4.992;2023-06-22T03:27:11;19.60;78.30
68217;DHT22;55037;52.354;4.992;2023-06-22T03:29:40;19.60;77.30
68217;DHT22;55037;52.354;4.992;2023-06-22T03:32:07;19.60;77.20
68217;DHT22;55037;52.354;4.992;2023-06-22T03:34:34;19.50;77.40
68217;DHT22;55037;52.354;4.992;2023-06-22T03:37:03;19.50;77.70
68217;DHT22;55037;52.354;4.992;2023-06-22T03:39:31;19.50;77.60
68217;DHT22;55037;52.354;4.992;2023-06-22T03:41:59;19.50;77.80
68217;DHT22;55037;52.354;4.992;2023-06-22T03:44:26;19.50;78.00
68217;DHT22;55037;52.354;4.992;2023-06-22T03:46:53;19.40;78.10
68217;DHT22;55037;52.354;4.992;2023-06-22T03:49:21;19.50;78.00
68217;DHT22;55037;52.354;4.992;2023-06-22T03:51:48;19.50;78.10
68217;DHT22;55037;52.354;4.992;2023-06-22T03:54:16;19.50;78.10
68217;DHT22;55037;52.354;4.992;2023-06-22T03:56:43;19.50;78.30
68217;DHT22;55037;52.354;4.992;2023-06-22T03:59:10;19.40;78.10
68217;DHT22;55037;52.354;4.992;2023-06-22T04:01:38;19.50;78.20
68217;DHT22;55037;52.354;4.992;2023-06-22T04:04:05;19.50;78.30
68217;DHT22;55037;52.354;4.992;2023-06-22T04:06:33;19.50;78.20
68217;DHT22;55037;52.354;4.992;2023-06-22T04:09:05;19.50;78.20
68217;DHT22;55037;52.354;4.992;2023-06-22T04:11:32;19.60;78.20
68217;DHT22;55037;52.354;4.992;2023-06-22T04:14:00;19.60;78.60
68217;DHT22;55037;52.354;4.992;2023-06-22T04:16:27;19.60;78.70
68217;DHT22;55037;52.354;4.992;2023-06-22T04:18:55;19.70;78.70
68217;DHT22;55037;52.354;4.992;2023-06-22T04:21:22;19.70;78.60
68217;DHT22;55037;52.354;4.992;2023-06-22T04:23:49;19.80;78.60
68217;DHT22;55037;52.354;4.992;2023-06-22T04:26:18;19.90;78.60
68217;DHT22;55037;52.354;4.992;2023-06-22T04:28:48;20.00;78.50
68217;DHT22;55037;52.354;4.992;2023-06-22T04:31:22;20.10;78.50
68217;DHT22;55037;52.354;4.992;2023-06-22T04:33:54;20.20;78.50
68217;DHT22;55037;52.354;4.992;2023-06-22T04:36:21;20.30;78.40
68217;DHT22;55037;52.354;4.992;2023-06-22T04:38:52;20.40;78.30
68217;DHT22;55037;52.354;4.992;2023-06-22T04:41:19;20.50;78.00
68217;DHT22;55037;52.354;4.992;2023-06-22T04:43:51;20.70;78.00
68217;DHT22;55037;52.354;4.992;2023-06-22T04:46:21;20.80;77.80
68217;DHT22;55037;52.354;4.992;2023-06-22T04:48:48;20.90;77.50
68217;DHT22;55037;52.354;4.992;2023-06-22T04:51:15;21.10;77.30
68217;DHT22;55037;52.354;4.992;2023-06-22T04:53:42;21.10;77.10
68217;DHT22;55037;52.354;4.992;2023-06-22T04:56:10;21.30;76.80
68217;DHT22;55037;52.354;4.992;2023-06-22T04:58:37;21.40;76.70
68217;DHT22;55037;52.354;4.992;2023-06-22T05:01:04;21.50;76.60
68217;DHT22;55037;52.354;4.992;2023-06-22T05:03:32;21.60;76.40
68217;DHT22;55037;52.354;4.992;2023-06-22T05:05:59;21.80;76.20
68217;DHT22;55037;52.354;4.992;2023-06-22T05:08:27;21.90;76.10
68217;DHT22;55037;52.354;4.992;2023-06-22T05:10:55;22.10;75.80
68217;DHT22;55037;52.354;4.992;2023-06-22T05:13:32;22.20;75.50
68217;DHT22;55037;52.354;4.992;2023-06-22T05:15:59;22.40;75.20
68217;DHT22;55037;52.354;4.992;2023-06-22T05:18:30;22.40;75.80
68217;DHT22;55037;52.354;4.992;2023-06-22T05:20:58;22.50;74.70
68217;DHT22;55037;52.354;4.992;2023-06-22T05:23:26;22.60;74.60
68217;DHT22;55037;52.354;4.992;2023-06-22T05:25:54;22.60;74.40
68217;DHT22;55037;52.354;4.992;2023-06-22T05:28:22;22.60;74.20
68217;DHT22;55037;52.354;4.992;2023-06-22T05:30:50;22.60;74.20
68217;DHT22;55037;52.354;4.992;2023-06-22T05:33:18;22.70;74.30
68217;DHT22;55037;52.354;4.992;2023-06-22T05:35:45;22.80;74.40
68217;DHT22;55037;52.354;4.992;2023-06-22T05:38:12;23.00;74.00
68217;DHT22;55037;52.354;4.992;2023-06-22T05:40:40;23.20;72.70
68217;DHT22;55037;52.354;4.992;2023-06-22T05:43:07;23.20;73.50
68217;DHT22;55037;52.354;4.992;2023-06-22T05:45:34;23.40;73.50
68217;DHT22;55037;52.354;4.992;2023-06-22T05:48:02;23.60;73.30
68217;DHT22;55037;52.354;4.992;2023-06-22T05:50:29;23.80;72.70
68217;DHT22;55037;52.354;4.992;2023-06-22T05:52:57;24.10;72.20
68217;DHT22;55037;52.354;4.992;2023-06-22T05:55:24;24.30;71.40
68217;DHT22;55037;52.354;4.992;2023-06-22T05:57:51;24.40;70.80
68217;DHT22;55037;52.354;4.992;2023-06-22T06:00:19;24.50;70.30
68217;DHT22;55037;52.354;4.992;2023-06-22T06:02:47;24.60;69.70
68217;DHT22;55037;52.354;4.992;2023-06-22T06:05:16;24.60;69.50
68217;DHT22;55037;52.354;4.992;2023-06-22T06:07:46;24.50;69.10
68217;DHT22;55037;52.354;4.992;2023-06-22T06:10:14;24.50;69.00
68217;DHT22;55037;52.354;4.992;2023-06-22T06:12:41;24.50;68.90
68217;DHT22;55037;52.354;4.992;2023-06-22T06:15:09;24.50;68.90
68217;DHT22;55037;52.354;4.992;2023-06-22T06:17:51;24.50;68.60
68217;DHT22;55037;52.354;4.992;2023-06-22T06:20:20;24.50;68.80
68217;DHT22;55037;52.354;4.992;2023-06-22T06:22:49;24.50;68.60
68217;DHT22;55037;52.354;4.992;2023-06-22T06:25:16;24.60;68.00
68217;DHT22;55037;52.354;4.992;2023-06-22T06:27:46;24.60;67.90
68217;DHT22;55037;52.354;4.992;2023-06-22T06:30:15;24.50;68.20
68217;DHT22;55037;52.354;4.992;2023-06-22T06:32:44;24.60;68.20
68217;DHT22;55037;52.354;4.992;2023-06-22T06:35:13;24.80;68.10
68217;DHT22;55037;52.354;4.992;2023-06-22T06:37:44;25.10;67.70
68217;DHT22;55037;52.354;4.992;2023-06-22T06:40:13;25.30;67.30
68217;DHT22;55037;52.354;4.992;2023-06-22T06:42:42;25.50;67.00
68217;DHT22;55037;52.354;4.992;2023-06-22T06:45:12;25.60;66.10
68217;DHT22;55037;52.354;4.992;2023-06-22T06:47:40;25.70;65.60
68217;DHT22;55037;52.354;4.992;2023-06-22T06:50:08;25.70;65.50
68217;DHT22;55037;52.354;4.992;2023-06-22T06:52:35;25.80;65.20
68217;DHT22;55037;52.354;4.992;2023-06-22T06:55:05;25.90;64.60
68217;DHT22;55037;52.354;4.992;2023-06-22T06:57:40;25.90;64.60
68217;DHT22;55037;52.354;4.992;2023-06-22T07:00:09;26.10;64.70
68217;DHT22;55037;52.354;4.992;2023-06-22T07:02:40;26.20;64.00
68217;DHT22;55037;52.354;4.992;2023-06-22T07:05:09;26.30;63.60
68217;DHT22;55037;52.354;4.992;2023-06-22T07:07:37;26.50;63.40
68217;DHT22;55037;52.354;4.992;2023-06-22T07:10:05;26.60;63.00
68217;DHT22;55037;52.354;4.992;2023-06-22T07:12:33;26.80;62.50
68217;DHT22;55037;52.354;4.992;2023-06-22T07:15:03;26.90;62.40
68217;DHT22;55037;52.354;4.992;2023-06-22T07:17:31;27.00;61.20
68217;DHT22;55037;52.354;4.992;2023-06-22T07:19:58;27.00;61.00
68217;DHT22;55037;52.354;4.992;2023-06-22T07:22:26;27.00;60.80
68217;DHT22;55037;52.354;4.992;2023-06-22T07:24:53;26.90;60.70
68217;DHT22;55037;52.354;4.992;2023-06-22T07:27:21;27.00;60.70
68217;DHT22;55037;52.354;4.992;2023-06-22T07:29:48;27.00;60.50
68217;DHT22;55037;52.354;4.992;2023-06-22T07:32:16;27.20;60.20
68217;DHT22;55037;52.354;4.992;2023-06-22T07:34:43;27.30;59.80
68217;DHT22;55037;52.354;4.992;2023-06-22T07:37:10;27.40;59.20
68217;DHT22;55037;52.354;4.992;2023-06-22T07:39:38;27.50;59.10
68217;DHT22;55037;52.354;4.992;2023-06-22T07:42:05;27.70;58.10
68217;DHT22;55037;52.354;4.992;2023-06-22T07:44:32;27.80;57.00
68217;DHT22;55037;52.354;4.992;2023-06-22T07:47:00;27.90;57.00
68217;DHT22;55037;52.354;4.992;2023-06-22T07:49:28;28.10;56.70
68217;DHT22;55037;52.354;4.992;2023-06-22T07:51:55;28.10;56.10
68217;DHT22;55037;52.354;4.992;2023-06-22T07:54:24;28.30;55.90
68217;DHT22;55037;52.354;4.992;2023-06-22T07:56:51;28.40;55.60
68217;DHT22;55037;52.354;4.992;2023-06-22T07:59:20;28.50;55.00
68217;DHT22;55037;52.354;4.992;2023-06-22T08:01:47;28.60;54.80
68217;DHT22;55037;52.354;4.992;2023-06-22T08:04:16;28.70;55.10
68217;DHT22;55037;52.354;4.992;2023-06-22T08:06:43;28.80;53.50
68217;DHT22;55037;52.354;4.992;2023-06-22T08:09:11;28.90;53.40
68217;DHT22;55037;52.354;4.992;2023-06-22T08:11:39;28.90;52.90
68217;DHT22;55037;52.354;4.992;2023-06-22T08:14:06;29.00;52.70
68217;DHT22;55037;52.354;4.992;2023-06-22T08:16:34;29.00;52.40
68217;DHT22;55037;52.354;4.992;2023-06-22T08:19:01;29.10;52.00
68217;DHT22;55037;52.354;4.992;2023-06-22T08:21:28;29.20;52.20
68217;DHT22;55037;52.354;4.992;2023-06-22T08:23:56;29.30;51.20
68217;DHT22;55037;52.354;4.992;2023-06-22T08:26:23;29.40;51.10
68217;DHT22;55037;52.354;4.992;2023-06-22T08:28:50;29.50;49.80
68217;DHT22;55037;52.354;4.992;2023-06-22T08:31:17;29.70;49.70
68217;DHT22;55037;52.354;4.992;2023-06-22T08:33:45;29.80;49.50
68217;DHT22;55037;52.354;4.992;2023-06-22T08:36:16;30.00;49.10
68217;DHT22;55037;52.354;4.992;2023-06-22T08:38:44;30.20;47.90
68217;DHT22;55037;52.354;4.992;2023-06-22T08:41:11;30.30;47.50
68217;DHT22;55037;52.354;4.992;2023-06-22T08:43:39;30.40;47.40
68217;DHT22;55037;52.354;4.992;2023-06-22T08:46:06;30.60;47.40
68217;DHT22;55037;52.354;4.992;2023-06-22T08:48:33;30.80;46.10
68217;DHT22;55037;52.354;4.992;2023-06-22T08:51:01;31.10;45.50
68217;DHT22;55037;52.354;4.992;2023-06-22T08:53:28;31.30;44.90
68217;DHT22;55037;52.354;4.992;2023-06-22T08:55:55;31.60;43.80
68217;DHT22;55037;52.354;4.992;2023-06-22T08:58:22;31.80;43.40
68217;DHT22;55037;52.354;4.992;2023-06-22T09:00:51;32.00;42.70
68217;DHT22;55037;52.354;4.992;2023-06-22T09:03:19;32.20;42.40
68217;DHT22;55037;52.354;4.992;2023-06-22T09:05:48;32.40;42.30
68217;DHT22;55037;52.354;4.992;2023-06-22T09:08:15;32.60;41.40
68217;DHT22;55037;52.354;4.992;2023-06-22T09:10:42;32.70;41.00
68217;DHT22;55037;52.354;4.992;2023-06-22T09:13:10;32.90;40.50
68217;DHT22;55037;52.354;4.992;2023-06-22T09:15:37;33.00;40.00
68217;DHT22;55037;52.354;4.992;2023-06-22T09:18:04;33.30;39.80
68217;DHT22;55037;52.354;4.992;2023-06-22T09:20:33;33.70;38.90
68217;DHT22;55037;52.354;4.992;2023-06-22T09:23:00;34.60;38.40
68217;DHT22;55037;52.354;4.992;2023-06-22T09:25:28;35.60;36.50
68217;DHT22;55037;52.354;4.992;2023-06-22T09:27:56;36.50;33.40
68217;DHT22;55037;52.354;4.992;2023-06-22T09:30:23;37.30;31.90
68217;DHT22;55037;52.354;4.992;2023-06-22T09:32:50;37.80;30.50
68217;DHT22;55037;52.354;4.992;2023-06-22T09:35:18;38.00;29.70
68217;DHT22;55037;52.354;4.992;2023-06-22T09:37:45;37.90;29.70
68217;DHT22;55037;52.354;4.992;2023-06-22T09:40:12;37.60;29.60
68217;DHT22;55037;52.354;4.992;2023-06-22T09:42:42;37.30;30.00
68217;DHT22;55037;52.354;4.992;2023-06-22T09:45:10;37.20;30.20
68217;DHT22;55037;52.354;4.992;2023-06-22T09:47:37;37.20;30.20
68217;DHT22;55037;52.354;4.992;2023-06-22T09:50:06;37.10;30.10
68217;DHT22;55037;52.354;4.992;2023-06-22T09:52:33;37.30;30.00
68217;DHT22;55037;52.354;4.992;2023-06-22T09:55:14;37.50;29.70
68217;DHT22;55037;52.354;4.992;2023-06-22T09:57:43;37.70;29.30
68217;DHT22;55037;52.354;4.992;2023-06-22T10:00:11;38.00;29.10
68217;DHT22;55037;52.354;4.992;2023-06-22T10:02:42;38.20;29.00
68217;DHT22;55037;52.354;4.992;2023-06-22T10:05:10;38.60;28.30
68217;DHT22;55037;52.354;4.992;2023-06-22T10:07:38;38.90;27.60
68217;DHT22;55037;52.354;4.992;2023-06-22T10:10:13;39.40;27.20
68217;DHT22;55037;52.354;4.992;2023-06-22T10:12:54;39.90;26.60
68217;DHT22;55037;52.354;4.992;2023-06-22T10:15:21;40.20;26.10
68217;DHT22;55037;52.354;4.992;2023-06-22T10:17:49;40.10;25.80
68217;DHT22;55037;52.354;4.992;2023-06-22T10:20:16;39.80;25.90
68217;DHT22;55037;52.354;4.992;2023-06-22T10:22:45;39.30;26.40
68217;DHT22;55037;52.354;4.992;2023-06-22T10:25:13;39.00;26.90
68217;DHT22;55037;52.354;4.992;2023-06-22T10:27:40;38.50;27.40
68217;DHT22;55037;52.354;4.992;2023-06-22T10:30:10;38.10;27.80
68217;DHT22;55037;52.354;4.992;2023-06-22T10:32:40;37.70;28.20
68217;DHT22;55037;52.354;4.992;2023-06-22T10:35:08;37.30;28.60
68217;DHT22;55037;52.354;4.992;2023-06-22T10:37:37;37.00;28.90
68217;DHT22;55037;52.354;4.992;2023-06-22T10:40:05;36.70;29.10
68217;DHT22;55037;52.354;4.992;2023-06-22T10:42:33;36.40;29.70
68217;DHT22;55037;52.354;4.992;2023-06-22T10:45:00;36.00;30.00
68217;DHT22;55037;52.354;4.992;2023-06-22T10:47:27;35.60;30.60
68217;DHT22;55037;52.354;4.992;2023-06-22T10:49:55;35.20;31.40
68217;DHT22;55037;52.354;4.992;2023-06-22T10:52:22;34.70;31.80
68217;DHT22;55037;52.354;4.992;2023-06-22T10:54:50;34.30;32.80
68217;DHT22;55037;52.354;4.992;2023-06-22T10:57:17;34.10;33.40
68217;DHT22;55037;52.354;4.992;2023-06-22T10:59:44;33.80;33.60
68217;DHT22;55037;52.354;4.992;2023-06-22T11:02:11;33.50;35.50
68217;DHT22;55037;52.354;4.992;2023-06-22T11:04:39;33.20;35.30
68217;DHT22;55037;52.354;4.992;2023-06-22T11:07:06;32.90;36.10
68217;DHT22;55037;52.354;4.992;2023-06-22T11:09:33;32.50;36.90
68217;DHT22;55037;52.354;4.992;2023-06-22T11:12:01;32.30;37.60
68217;DHT22;55037;52.354;4.992;2023-06-22T11:14:28;32.30;37.90
68217;DHT22;55037;52.354;4.992;2023-06-22T11:16:56;32.30;37.90
68217;DHT22;55037;52.354;4.992;2023-06-22T11:19:23;32.30;38.00
68217;DHT22;55037;52.354;4.992;2023-06-22T11:21:53;32.20;38.10
68217;DHT22;55037;52.354;4.992;2023-06-22T11:24:20;32.00;38.30
68217;DHT22;55037;52.354;4.992;2023-06-22T11:26:48;31.80;38.60
68217;DHT22;55037;52.354;4.992;2023-06-22T11:29:15;31.70;39.30
68217;DHT22;55037;52.354;4.992;2023-06-22T11:32:02;31.50;39.80
68217;DHT22;55037;52.354;4.992;2023-06-22T11:34:30;31.40;40.10
68217;DHT22;55037;52.354;4.992;2023-06-22T11:36:57;31.30;40.60
68217;DHT22;55037;52.354;4.992;2023-06-22T11:39:24;31.30;41.00
68217;DHT22;55037;52.354;4.992;2023-06-22T11:42:11;31.40;40.80
68217;DHT22;55037;52.354;4.992;2023-06-22T11:44:39;31.30;41.00
68217;DHT22;55037;52.354;4.992;2023-06-22T11:47:06;31.30;41.20
68217;DHT22;55037;52.354;4.992;2023-06-22T11:49:33;31.30;41.00
68217;DHT22;55037;52.354;4.992;2023-06-22T11:52:01;31.20;41.10
68217;DHT22;55037;52.354;4.992;2023-06-22T11:54:28;31.10;41.10
68217;DHT22;55037;52.354;4.992;2023-06-22T11:56:55;31.10;41.30
68217;DHT22;55037;52.354;4.992;2023-06-22T11:59:22;31.20;41.50
68217;DHT22;55037;52.354;4.992;2023-06-22T12:01:50;31.40;41.00
68217;DHT22;55037;52.354;4.992;2023-06-22T12:04:18;31.50;40.60
68217;DHT22;55037;52.354;4.992;2023-06-22T12:06:45;31.60;40.40
68217;DHT22;55037;52.354;4.992;2023-06-22T12:09:13;31.60;40.30
68217;DHT22;55037;52.354;4.992;2023-06-22T12:11:41;31.50;40.10
68217;DHT22;55037;52.354;4.992;2023-06-22T12:14:08;31.40;40.00
68217;DHT22;55037;52.354;4.992;2023-06-22T12:16:35;31.40;40.00
68217;DHT22;55037;52.354;4.992;2023-06-22T12:19:03;31.40;40.30
68217;DHT22;55037;52.354;4.992;2023-06-22T12:21:30;31.40;39.90
68217;DHT22;55037;52.354;4.992;2023-06-22T12:23:58;31.40;39.70
68217;DHT22;55037;52.354;4.992;2023-06-22T12:26:25;31.30;39.50
68217;DHT22;55037;52.354;4.992;2023-06-22T12:28:52;31.20;39.50
68217;DHT22;55037;52.354;4.992;2023-06-22T12:31:20;31.20;39.80
68217;DHT22;55037;52.354;4.992;2023-06-22T12:33:47;31.00;40.10
68217;DHT22;55037;52.354;4.992;2023-06-22T12:36:15;31.00;40.40
68217;DHT22;55037;52.354;4.992;2023-06-22T12:38:43;31.00;40.10
68217;DHT22;55037;52.354;4.992;2023-06-22T12:41:10;30.90;39.90
68217;DHT22;55037;52.354;4.992;2023-06-22T12:43:38;30.80;40.20
68217;DHT22;55037;52.354;4.992;2023-06-22T12:46:05;30.70;40.60
68217;DHT22;55037;52.354;4.992;2023-06-22T12:48:32;30.60;41.00
68217;DHT22;55037;52.354;4.992;2023-06-22T12:51:00;30.50;41.30
68217;DHT22;55037;52.354;4.992;2023-06-22T12:53:28;30.40;41.70
68217;DHT22;55037;52.354;4.992;2023-06-22T12:55:55;30.30;41.80
68217;DHT22;55037;52.354;4.992;2023-06-22T12:58:22;30.20;41.70
68217;DHT22;55037;52.354;4.992;2023-06-22T13:00:50;29.90;42.00
68217;DHT22;55037;52.354;4.992;2023-06-22T13:03:17;29.80;42.90
68217;DHT22;55037;52.354;4.992;2023-06-22T13:05:44;29.70;43.10
68217;DHT22;55037;52.354;4.992;2023-06-22T13:08:12;29.60;42.70
68217;DHT22;55037;52.354;4.992;2023-06-22T13:10:39;29.30;42.10
68217;DHT22;55037;52.354;4.992;2023-06-22T13:13:06;29.30;43.00
68217;DHT22;55037;52.354;4.992;2023-06-22T13:15:34;29.20;43.40
68217;DHT22;55037;52.354;4.992;2023-06-22T13:18:01;29.10;43.50
68217;DHT22;55037;52.354;4.992;2023-06-22T13:20:29;29.00;43.50
68217;DHT22;55037;52.354;4.992;2023-06-22T13:22:56;28.80;43.50
68217;DHT22;55037;52.354;4.992;2023-06-22T13:25:24;28.80;43.90
68217;DHT22;55037;52.354;4.992;2023-06-22T13:27:54;28.80;44.20
68217;DHT22;55037;52.354;4.992;2023-06-22T13:30:21;28.80;44.20
68217;DHT22;55037;52.354;4.992;2023-06-22T13:32:48;28.80;44.10
68217;DHT22;55037;52.354;4.992;2023-06-22T13:35:16;28.80;44.20
68217;DHT22;55037;52.354;4.992;2023-06-22T13:37:43;28.70;44.20
68217;DHT22;55037;52.354;4.992;2023-06-22T13:40:10;28.70;44.40
68217;DHT22;55037;52.354;4.992;2023-06-22T13:42:38;28.70;44.60
68217;DHT22;55037;52.354;4.992;2023-06-22T13:45:07;28.70;44.80
68217;DHT22;55037;52.354;4.992;2023-06-22T13:47:34;28.70;44.80
68217;DHT22;55037;52.354;4.992;2023-06-22T13:50:02;28.70;44.60
68217;DHT22;55037;52.354;4.992;2023-06-22T13:52:29;28.70;44.60
68217;DHT22;55037;52.354;4.992;2023-06-22T13:54:56;28.70;44.30
68217;DHT22;55037;52.354;4.992;2023-06-22T13:57:24;28.70;44.20
68217;DHT22;55037;52.354;4.992;2023-06-22T13:59:51;28.70;44.40
68217;DHT22;55037;52.354;4.992;2023-06-22T14:02:18;28.60;44.30
68217;DHT22;55037;52.354;4.992;2023-06-22T14:04:46;28.60;44.30
68217;DHT22;55037;52.354;4.992;2023-06-22T14:07:16;28.40;44.60
68217;DHT22;55037;52.354;4.992;2023-06-22T14:09:43;28.40;44.70
68217;DHT22;55037;52.354;4.992;2023-06-22T14:12:11;28.30;44.60
68217;DHT22;55037;52.354;4.992;2023-06-22T14:14:39;28.20;44.90
68217;DHT22;55037;52.354;4.992;2023-06-22T14:17:06;28.10;44.90
68217;DHT22;55037;52.354;4.992;2023-06-22T14:19:33;28.10;45.00
68217;DHT22;55037;52.354;4.992;2023-06-22T14:22:01;28.00;46.40
68217;DHT22;55037;52.354;4.992;2023-06-22T14:24:29;28.00;45.60
68217;DHT22;55037;52.354;4.992;2023-06-22T14:26:57;28.00;46.00
68217;DHT22;55037;52.354;4.992;2023-06-22T14:29:25;28.00;46.20
68217;DHT22;55037;52.354;4.992;2023-06-22T14:31:52;28.00;46.70
68217;DHT22;55037;52.354;4.992;2023-06-22T14:34:20;28.00;46.50
68217;DHT22;55037;52.354;4.992;2023-06-22T14:36:47;28.00;46.50
68217;DHT22;55037;52.354;4.992;2023-06-22T14:39:15;28.00;46.70
68217;DHT22;55037;52.354;4.992;2023-06-22T14:41:42;27.90;46.80
68217;DHT22;55037;52.354;4.992;2023-06-22T14:44:09;27.90;47.00
68217;DHT22;55037;52.354;4.992;2023-06-22T14:46:37;27.90;47.70
68217;DHT22;55037;52.354;4.992;2023-06-22T14:49:04;27.80;47.90
68217;DHT22;55037;52.354;4.992;2023-06-22T14:51:31;27.70;47.60
68217;DHT22;55037;52.354;4.992;2023-06-22T14:53:59;27.70;47.50
68217;DHT22;55037;52.354;4.992;2023-06-22T14:56:26;27.70;47.80
68217;DHT22;55037;52.354;4.992;2023-06-22T14:58:53;27.60;47.80
68217;DHT22;55037;52.354;4.992;2023-06-22T15:01:21;27.60;47.80
68217;DHT22;55037;52.354;4.992;2023-06-22T15:03:49;27.50;48.00
68217;DHT22;55037;52.354;4.992;2023-06-22T15:06:16;27.50;48.20
68217;DHT22;55037;52.354;4.992;2023-06-22T15:08:43;27.50;48.10
68217;DHT22;55037;52.354;4.992;2023-06-22T15:11:11;27.50;48.00
68217;DHT22;55037;52.354;4.992;2023-06-22T15:13:39;27.50;47.80
68217;DHT22;55037;52.354;4.992;2023-06-22T15:16:08;27.50;48.00
68217;DHT22;55037;52.354;4.992;2023-06-22T15:18:36;27.40;47.90
68217;DHT22;55037;52.354;4.992;2023-06-22T15:21:04;27.40;48.20
68217;DHT22;55037;52.354;4.992;2023-06-22T15:23:32;27.40;48.60
68217;DHT22;55037;52.354;4.992;2023-06-22T15:26:02;27.40;48.60
68217;DHT22;55037;52.354;4.992;2023-06-22T15:28:30;27.40;48.20
68217;DHT22;55037;52.354;4.992;2023-06-22T15:30:59;27.40;48.10
68217;DHT22;55037;52.354;4.992;2023-06-22T15:33:26;27.40;48.20
68217;DHT22;55037;52.354;4.992;2023-06-22T15:35:54;27.30;48.40
68217;DHT22;55037;52.354;4.992;2023-06-22T15:38:22;27.20;49.20
68217;DHT22;55037;52.354;4.992;2023-06-22T15:40:50;27.10;50.10
68217;DHT22;55037;52.354;4.992;2023-06-22T15:43:19;27.00;50.60
68217;DHT22;55037;52.354;4.992;2023-06-22T15:45:47;27.00;51.00